sensor_id;sensor_type;location;lat;lon;timestamp;P1;durP1;ratioP1;P2;durP2;ratioP2
53903;SDS011;39812;52.430;16.936;2023-04-01T00:00:18;15.15;;;8.45;;
53903;SDS011;39812;52.430;16.936;2023-04-01T00:02:45;13.40;;;7.10;;
53903;SDS011;39812;52.430;16.936;2023-04-01T00:05:11;15.02;;;7.82;;
53903;SDS011;39812;52.430;16.936;2023-04-01T00:07:37;15.75;;;8.63;;
53903;SDS011;39812;52.430;16.936;2023-04-01T00:10:07;14.57;;;7.80;;
53903;SDS011;39812;52.430;16.936;2023-04-01T00:12:34;13.75;;;7.63;;
53903;SDS011;39812;52.430;16.936;2023-04-01T00:15:00;17.88;;;8.10;;
53903;SDS011;39812;52.430;16.936;2023-04-01T00:17:27;11.60;;;6.53;;
53903;SDS011;39812;52.430;16.936;2023-04-01T00:19:56;13.73;;;7.82;;
53903;SDS011;39812;52.430;16.936;2023-04-01T00:22:22;12.90;;;6.90;;
53903;SDS011;39812;52.430;16.936;2023-04-01T00:24:48;13.80;;;7.60;;
53903;SDS011;39812;52.430;16.936;2023-04-01T00:27:14;13.00;;;7.43;;
53903;SDS011;39812;52.430;16.936;2023-04-01T00:29:44;13.18;;;8.48;;
53903;SDS011;39812;52.430;16.936;2023-04-01T00:32:11;14.50;;;7.55;;
53903;SDS011;39812;52.430;16.936;2023-04-01T00:34:37;14.82;;;8.40;;
53903;SDS011;39812;52.430;16.936;2023-04-01T00:37:04;15.60;;;7.80;;
53903;SDS011;39812;52.430;16.936;2023-04-01T00:39:31;17.27;;;8.27;;
53903;SDS011;39812;52.430;16.936;2023-04-01T00:41:59;16.67;;;8.27;;
53903;SDS011;39812;52.430;16.936;2023-04-01T00:44:29;12.43;;;7.45;;
53903;SDS011;39812;52.430;16.936;2023-04-01T00:46:57;15.93;;;7.88;;
53903;SDS011;39812;52.430;16.936;2023-04-01T00:49:25;13.40;;;7.10;;
53903;SDS011;39812;52.430;16.936;2023-04-01T00:51:55;15.68;;;8.07;;
53903;SDS011;39812;52.430;16.936;2023-04-01T00:54:24;13.02;;;6.97;;
53903;SDS011;39812;52.430;16.936;2023-04-01T00:56:53;13.32;;;8.70;;
53903;SDS011;39812;52.430;16.936;2023-04-01T00:59:34;13.20;;;7.60;;
53903;SDS011;39812;52.430;16.936;2023-04-01T01:02:04;15.23;;;7.72;;
53903;SDS011;39812;52.430;16.936;2023-04-01T01:04:34;12.30;;;7.72;;
53903;SDS011;39812;52.430;16.936;2023-04-01T01:12:29;14.80;;;7.28;;
53903;SDS011;39812;52.430;16.936;2023-04-01T01:37:11;16.30;;;7.95;;
53903;SDS011;39812;52.430;16.936;2023-04-01T01:39:40;17.48;;;8.68;;
53903;SDS011;39812;52.430;16.936;2023-04-01T01:42:08;15.65;;;7.35;;
53903;SDS011;39812;52.430;16.936;2023-04-01T01:44:36;16.63;;;8.57;;
53903;SDS011;39812;52.430;16.936;2023-04-01T01:47:03;14.68;;;8.38;;
53903;SDS011;39812;52.430;16.936;2023-04-01T01:49:30;17.42;;;8.23;;
53903;SDS011;39812;52.430;16.936;2023-04-01T01:51:58;14.70;;;7.70;;
53903;SDS011;39812;52.430;16.936;2023-04-01T01:54:24;14.02;;;7.97;;
53903;SDS011;39812;52.430;16.936;2023-04-01T01:56:51;15.77;;;9.13;;
53903;SDS011;39812;52.430;16.936;2023-04-01T01:59:24;18.63;;;8.98;;
53903;SDS011;39812;52.430;16.936;2023-04-01T02:01:53;21.90;;;9.95;;
53903;SDS011;39812;52.430;16.936;2023-04-01T02:04:21;21.90;;;10.05;;
53903;SDS011;39812;52.430;16.936;2023-04-01T02:07:22;19.40;;;9.98;;
53903;SDS011;39812;52.430;16.936;2023-04-01T02:09:51;24.02;;;11.52;;
53903;SDS011;39812;52.430;16.936;2023-04-01T02:12:17;26.08;;;11.52;;
53903;SDS011;39812;52.430;16.936;2023-04-01T02:14:55;15.98;;;8.43;;
53903;SDS011;39812;52.430;16.936;2023-04-01T02:17:26;17.42;;;9.65;;
53903;SDS011;39812;52.430;16.936;2023-04-01T02:22:30;21.38;;;10.30;;
53903;SDS011;39812;52.430;16.936;2023-04-01T02:25:00;20.92;;;10.45;;
53903;SDS011;39812;52.430;16.936;2023-04-01T02:27:30;22.17;;;10.32;;
53903;SDS011;39812;52.430;16.936;2023-04-01T02:29:56;18.73;;;9.63;;
53903;SDS011;39812;52.430;16.936;2023-04-01T02:32:23;19.30;;;10.40;;
53903;SDS011;39812;52.430;16.936;2023-04-01T02:34:49;19.67;;;9.57;;
53903;SDS011;39812;52.430;16.936;2023-04-01T02:37:16;19.73;;;10.27;;
53903;SDS011;39812;52.430;16.936;2023-04-01T02:39:42;21.85;;;11.23;;
53903;SDS011;39812;52.430;16.936;2023-04-01T02:42:08;18.38;;;9.57;;
53903;SDS011;39812;52.430;16.936;2023-04-01T02:44:34;20.65;;;10.93;;
53903;SDS011;39812;52.430;16.936;2023-04-01T02:47:00;19.25;;;10.13;;
53903;SDS011;39812;52.430;16.936;2023-04-01T02:49:26;18.80;;;10.43;;
53903;SDS011;39812;52.430;16.936;2023-04-01T02:51:52;22.98;;;12.02;;
53903;SDS011;39812;52.430;16.936;2023-04-01T02:54:18;21.63;;;11.02;;
53903;SDS011;39812;52.430;16.936;2023-04-01T02:56:44;21.88;;;12.10;;
53903;SDS011;39812;52.430;16.936;2023-04-01T02:59:10;21.33;;;11.10;;
53903;SDS011;39812;52.430;16.936;2023-04-01T03:01:37;21.13;;;11.30;;
53903;SDS011;39812;52.430;16.936;2023-04-01T03:04:03;23.80;;;12.35;;
53903;SDS011;39812;52.430;16.936;2023-04-01T03:06:29;25.77;;;13.35;;
53903;SDS011;39812;52.430;16.936;2023-04-01T03:08:55;21.25;;;12.10;;
53903;SDS011;39812;52.430;16.936;2023-04-01T03:11:21;27.45;;;13.65;;
53903;SDS011;39812;52.430;16.936;2023-04-01T03:13:47;23.88;;;11.07;;
53903;SDS011;39812;52.430;16.936;2023-04-01T03:16:13;22.27;;;12.65;;
53903;SDS011;39812;52.430;16.936;2023-04-01T03:18:39;29.10;;;13.73;;
53903;SDS011;39812;52.430;16.936;2023-04-01T03:21:18;25.23;;;13.25;;
53903;SDS011;39812;52.430;16.936;2023-04-01T03:23:46;22.30;;;11.50;;
53903;SDS011;39812;52.430;16.936;2023-04-01T03:26:11;24.70;;;11.70;;
53903;SDS011;39812;52.430;16.936;2023-04-01T03:28:38;23.83;;;12.45;;
53903;SDS011;39812;52.430;16.936;2023-04-01T03:31:04;26.70;;;13.57;;
53903;SDS011;39812;52.430;16.936;2023-04-01T03:33:30;24.95;;;12.52;;
53903;SDS011;39812;52.430;16.936;2023-04-01T03:35:56;25.00;;;12.57;;
53903;SDS011;39812;52.430;16.936;2023-04-01T03:38:22;27.42;;;11.65;;
53903;SDS011;39812;52.430;16.936;2023-04-01T03:40:48;20.65;;;11.15;;
53903;SDS011;39812;52.430;16.936;2023-04-01T03:43:14;24.83;;;11.90;;
53903;SDS011;39812;52.430;16.936;2023-04-01T03:45:48;21.45;;;10.40;;
53903;SDS011;39812;52.430;16.936;2023-04-01T03:48:15;22.95;;;10.68;;
53903;SDS011;39812;52.430;16.936;2023-04-01T03:50:41;19.95;;;11.32;;
53903;SDS011;39812;52.430;16.936;2023-04-01T03:53:07;21.67;;;10.80;;
53903;SDS011;39812;52.430;16.936;2023-04-01T03:55:33;23.98;;;11.73;;
53903;SDS011;39812;52.430;16.936;2023-04-01T03:58:00;22.23;;;11.25;;
53903;SDS011;39812;52.430;16.936;2023-04-01T04:00:27;24.33;;;12.07;;
53903;SDS011;39812;52.430;16.936;2023-04-01T04:02:53;25.20;;;11.88;;
53903;SDS011;39812;52.430;16.936;2023-04-01T04:05:20;21.02;;;9.80;;
53903;SDS011;39812;52.430;16.936;2023-04-01T04:07:46;23.95;;;11.23;;
53903;SDS011;39812;52.430;16.936;2023-04-01T04:10:12;22.20;;;10.50;;
53903;SDS011;39812;52.430;16.936;2023-04-01T04:12:37;19.48;;;9.75;;
53903;SDS011;39812;52.430;16.936;2023-04-01T04:15:03;21.02;;;11.23;;
53903;SDS011;39812;52.430;16.936;2023-04-01T04:17:29;24.92;;;11.85;;
53903;SDS011;39812;52.430;16.936;2023-04-01T04:19:55;19.58;;;10.20;;
53903;SDS011;39812;52.430;16.936;2023-04-01T04:22:20;24.30;;;11.75;;
53903;SDS011;39812;52.430;16.936;2023-04-01T04:24:46;21.65;;;10.63;;
53903;SDS011;39812;52.430;16.936;2023-04-01T04:27:12;21.13;;;10.07;;
53903;SDS011;39812;52.430;16.936;2023-04-01T04:29:37;24.25;;;10.05;;
53903;SDS011;39812;52.430;16.936;2023-04-01T04:32:03;17.85;;;9.68;;
53903;SDS011;39812;52.430;16.936;2023-04-01T04:34:29;25.25;;;11.80;;
53903;SDS011;39812;52.430;16.936;2023-04-01T04:36:54;21.90;;;10.73;;
53903;SDS011;39812;52.430;16.936;2023-04-01T04:39:20;18.77;;;10.45;;
53903;SDS011;39812;52.430;16.936;2023-04-01T04:41:45;18.73;;;9.95;;
53903;SDS011;39812;52.430;16.936;2023-04-01T04:44:11;20.17;;;9.85;;
53903;SDS011;39812;52.430;16.936;2023-04-01T04:46:37;18.58;;;9.07;;
53903;SDS011;39812;52.430;16.936;2023-04-01T04:49:04;20.40;;;9.73;;
53903;SDS011;39812;52.430;16.936;2023-04-01T04:51:30;19.85;;;9.95;;
53903;SDS011;39812;52.430;16.936;2023-04-01T04:53:58;17.25;;;8.82;;
53903;SDS011;39812;52.430;16.936;2023-04-01T04:56:25;17.13;;;9.10;;
53903;SDS011;39812;52.430;16.936;2023-04-01T04:58:51;17.75;;;9.10;;
53903;SDS011;39812;52.430;16.936;2023-04-01T05:01:17;17.63;;;8.88;;
53903;SDS011;39812;52.430;16.936;2023-04-01T05:03:44;16.33;;;8.57;;
53903;SDS011;39812;52.430;16.936;2023-04-01T05:06:11;17.13;;;9.05;;
53903;SDS011;39812;52.430;16.936;2023-04-01T05:08:38;16.55;;;9.15;;
53903;SDS011;39812;52.430;16.936;2023-04-01T05:11:07;18.27;;;9.25;;
53903;SDS011;39812;52.430;16.936;2023-04-01T05:13:35;15.50;;;8.23;;
53903;SDS011;39812;52.430;16.936;2023-04-01T05:16:01;16.70;;;9.00;;
53903;SDS011;39812;52.430;16.936;2023-04-01T05:18:27;15.75;;;8.70;;
53903;SDS011;39812;52.430;16.936;2023-04-01T05:20:53;18.48;;;8.70;;
53903;SDS011;39812;52.430;16.936;2023-04-01T05:23:20;17.08;;;9.20;;
53903;SDS011;39812;52.430;16.936;2023-04-01T05:25:47;15.50;;;8.20;;
53903;SDS011;39812;52.430;16.936;2023-04-01T05:28:14;16.67;;;8.82;;
53903;SDS011;39812;52.430;16.936;2023-04-01T05:30:41;15.02;;;8.20;;
53903;SDS011;39812;52.430;16.936;2023-04-01T05:33:08;15.43;;;7.97;;
53903;SDS011;39812;52.430;16.936;2023-04-01T05:35:34;14.07;;;7.30;;
53903;SDS011;39812;52.430;16.936;2023-04-01T05:38:00;15.25;;;8.38;;
53903;SDS011;39812;52.430;16.936;2023-04-01T05:40:27;12.88;;;7.88;;
53903;SDS011;39812;52.430;16.936;2023-04-01T05:42:53;13.52;;;8.23;;
53903;SDS011;39812;52.430;16.936;2023-04-01T05:45:18;14.32;;;8.48;;
53903;SDS011;39812;52.430;16.936;2023-04-01T05:47:44;14.93;;;8.25;;
53903;SDS011;39812;52.430;16.936;2023-04-01T05:50:10;15.48;;;8.30;;
53903;SDS011;39812;52.430;16.936;2023-04-01T05:52:36;11.75;;;7.35;;
53903;SDS011;39812;52.430;16.936;2023-04-01T05:55:03;13.85;;;7.32;;
53903;SDS011;39812;52.430;16.936;2023-04-01T05:57:29;13.43;;;7.03;;
53903;SDS011;39812;52.430;16.936;2023-04-01T05:59:55;14.20;;;7.97;;
53903;SDS011;39812;52.430;16.936;2023-04-01T06:02:21;10.73;;;7.00;;
53903;SDS011;39812;52.430;16.936;2023-04-01T06:04:47;14.75;;;8.10;;
53903;SDS011;39812;52.430;16.936;2023-04-01T06:07:16;13.10;;;7.25;;
53903;SDS011;39812;52.430;16.936;2023-04-01T06:09:43;10.43;;;6.20;;
53903;SDS011;39812;52.430;16.936;2023-04-01T06:26:24;6.30;;;3.88;;
53903;SDS011;39812;52.430;16.936;2023-04-01T06:31:56;6.40;;;3.72;;
53903;SDS011;39812;52.430;16.936;2023-04-01T06:46:19;6.68;;;3.85;;
53903;SDS011;39812;52.430;16.936;2023-04-01T06:54:38;8.88;;;4.57;;
53903;SDS011;39812;52.430;16.936;2023-04-01T06:59:59;8.40;;;5.07;;
53903;SDS011;39812;52.430;16.936;2023-04-01T07:05:18;9.80;;;5.30;;
53903;SDS011;39812;52.430;16.936;2023-04-01T07:07:46;10.35;;;6.25;;
53903;SDS011;39812;52.430;16.936;2023-04-01T07:13:03;12.88;;;7.53;;
53903;SDS011;39812;52.430;16.936;2023-04-01T07:15:38;12.00;;;7.22;;
53903;SDS011;39812;52.430;16.936;2023-04-01T07:18:10;11.32;;;7.10;;
53903;SDS011;39812;52.430;16.936;2023-04-01T07:20:47;12.73;;;7.30;;
53903;SDS011;39812;52.430;16.936;2023-04-01T07:23:22;10.90;;;6.30;;
53903;SDS011;39812;52.430;16.936;2023-04-01T07:25:52;12.77;;;7.43;;
53903;SDS011;39812;52.430;16.936;2023-04-01T07:28:23;12.30;;;6.65;;
53903;SDS011;39812;52.430;16.936;2023-04-01T07:33:44;11.90;;;7.13;;
53903;SDS011;39812;52.430;16.936;2023-04-01T07:36:47;13.20;;;7.22;;
53903;SDS011;39812;52.430;16.936;2023-04-01T07:44:20;10.98;;;6.43;;
53903;SDS011;39812;52.430;16.936;2023-04-01T07:49:47;10.50;;;5.97;;
53903;SDS011;39812;52.430;16.936;2023-04-01T07:58:42;7.85;;;5.18;;
53903;SDS011;39812;52.430;16.936;2023-04-01T08:10:04;9.38;;;5.57;;
53903;SDS011;39812;52.430;16.936;2023-04-01T08:18:26;7.00;;;4.50;;
53903;SDS011;39812;52.430;16.936;2023-04-01T08:20:59;6.85;;;4.43;;
53903;SDS011;39812;52.430;16.936;2023-04-01T08:23:32;8.18;;;5.20;;
53903;SDS011;39812;52.430;16.936;2023-04-01T08:26:12;7.82;;;5.03;;
53903;SDS011;39812;52.430;16.936;2023-04-01T08:29:06;10.65;;;6.25;;
53903;SDS011;39812;52.430;16.936;2023-04-01T08:31:48;14.30;;;6.47;;
53903;SDS011;39812;52.430;16.936;2023-04-01T08:34:21;10.82;;;6.82;;
53903;SDS011;39812;52.430;16.936;2023-04-01T08:36:52;11.65;;;5.85;;
53903;SDS011;39812;52.430;16.936;2023-04-01T08:39:36;14.00;;;7.20;;
53903;SDS011;39812;52.430;16.936;2023-04-01T08:53:09;14.63;;;8.23;;
53903;SDS011;39812;52.430;16.936;2023-04-01T09:04:05;14.30;;;7.93;;
53903;SDS011;39812;52.430;16.936;2023-04-01T09:20:52;18.02;;;9.98;;
53903;SDS011;39812;52.430;16.936;2023-04-01T09:35:24;16.85;;;9.68;;
53903;SDS011;39812;52.430;16.936;2023-04-01T09:43:26;19.65;;;10.52;;
53903;SDS011;39812;52.430;16.936;2023-04-01T10:03:35;18.20;;;8.52;;
53903;SDS011;39812;52.430;16.936;2023-04-01T10:14:10;21.00;;;9.57;;
53903;SDS011;39812;52.430;16.936;2023-04-01T10:24:51;22.67;;;9.43;;
53903;SDS011;39812;52.430;16.936;2023-04-01T11:14:40;18.58;;;7.93;;
53903;SDS011;39812;52.430;16.936;2023-04-01T11:20:38;16.00;;;8.73;;
53903;SDS011;39812;52.430;16.936;2023-04-01T11:26:20;16.67;;;8.30;;
53903;SDS011;39812;52.430;16.936;2023-04-01T11:37:14;13.63;;;6.80;;
53903;SDS011;39812;52.430;16.936;2023-04-01T11:45:36;16.77;;;9.57;;
53903;SDS011;39812;52.430;16.936;2023-04-01T11:54:39;25.58;;;12.00;;
53903;SDS011;39812;52.430;16.936;2023-04-01T12:18:57;17.83;;;10.13;;
53903;SDS011;39812;52.430;16.936;2023-04-01T12:34:57;11.98;;;8.15;;
53903;SDS011;39812;52.430;16.936;2023-04-01T12:43:19;14.32;;;7.43;;
53903;SDS011;39812;52.430;16.936;2023-04-01T13:08:46;11.32;;;6.85;;
53903;SDS011;39812;52.430;16.936;2023-04-01T13:19:51;9.57;;;6.47;;
53903;SDS011;39812;52.430;16.936;2023-04-01T13:22:51;9.32;;;6.20;;
53903;SDS011;39812;52.430;16.936;2023-04-01T13:29:18;9.32;;;6.53;;
53903;SDS011;39812;52.430;16.936;2023-04-01T13:31:41;8.98;;;5.93;;
53903;SDS011;39812;52.430;16.936;2023-04-01T13:34:17;8.30;;;6.03;;
53903;SDS011;39812;52.430;16.936;2023-04-01T14:05:03;8.18;;;5.20;;
53903;SDS011;39812;52.430;16.936;2023-04-01T14:11:10;10.35;;;4.80;;
53903;SDS011;39812;52.430;16.936;2023-04-01T14:25:32;7.50;;;4.35;;
53903;SDS011;39812;52.430;16.936;2023-04-01T14:28:14;6.10;;;4.25;;
53903;SDS011;39812;52.430;16.936;2023-04-01T14:34:04;6.93;;;4.22;;
53903;SDS011;39812;52.430;16.936;2023-04-01T14:36:41;6.10;;;4.35;;
53903;SDS011;39812;52.430;16.936;2023-04-01T14:39:43;6.82;;;4.03;;
53903;SDS011;39812;52.430;16.936;2023-04-01T14:42:55;7.03;;;4.88;;
53903;SDS011;39812;52.430;16.936;2023-04-01T14:46:06;8.02;;;4.68;;
53903;SDS011;39812;52.430;16.936;2023-04-01T14:48:53;7.05;;;4.88;;
53903;SDS011;39812;52.430;16.936;2023-04-01T14:51:32;7.57;;;4.90;;
53903;SDS011;39812;52.430;16.936;2023-04-01T14:54:13;8.20;;;5.75;;
53903;SDS011;39812;52.430;16.936;2023-04-01T14:57:12;6.13;;;5.00;;
53903;SDS011;39812;52.430;16.936;2023-04-01T14:59:46;9.30;;;4.95;;
53903;SDS011;39812;52.430;16.936;2023-04-01T15:13:15;8.07;;;5.05;;
53903;SDS011;39812;52.430;16.936;2023-04-01T15:16:37;8.93;;;5.47;;
53903;SDS011;39812;52.430;16.936;2023-04-01T15:22:13;8.18;;;5.60;;
53903;SDS011;39812;52.430;16.936;2023-04-01T15:33:15;7.25;;;5.25;;
53903;SDS011;39812;52.430;16.936;2023-04-01T15:41:17;7.88;;;4.90;;
53903;SDS011;39812;52.430;16.936;2023-04-01T15:43:49;7.10;;;4.97;;
53903;SDS011;39812;52.430;16.936;2023-04-01T15:55:18;6.43;;;4.47;;
53903;SDS011;39812;52.430;16.936;2023-04-01T16:11:43;9.90;;;5.47;;
53903;SDS011;39812;52.430;16.936;2023-04-01T16:22:15;9.75;;;5.05;;
53903;SDS011;39812;52.430;16.936;2023-04-01T16:24:51;8.45;;;5.57;;
53903;SDS011;39812;52.430;16.936;2023-04-01T16:30:26;10.57;;;5.38;;
53903;SDS011;39812;52.430;16.936;2023-04-01T16:33:10;8.77;;;5.68;;
53903;SDS011;39812;52.430;16.936;2023-04-01T16:36:01;9.75;;;6.03;;
53903;SDS011;39812;52.430;16.936;2023-04-01T16:38:36;7.22;;;5.30;;
53903;SDS011;39812;52.430;16.936;2023-04-01T16:41:14;9.32;;;6.07;;
53903;SDS011;39812;52.430;16.936;2023-04-01T16:43:45;9.95;;;6.00;;
53903;SDS011;39812;52.430;16.936;2023-04-01T16:54:29;8.40;;;5.45;;
53903;SDS011;39812;52.430;16.936;2023-04-01T16:57:03;8.53;;;5.63;;
53903;SDS011;39812;52.430;16.936;2023-04-01T16:59:34;6.75;;;5.13;;
53903;SDS011;39812;52.430;16.936;2023-04-01T17:02:17;7.88;;;5.28;;
53903;SDS011;39812;52.430;16.936;2023-04-01T17:04:48;8.88;;;6.13;;
53903;SDS011;39812;52.430;16.936;2023-04-01T17:20:54;7.13;;;4.95;;
53903;SDS011;39812;52.430;16.936;2023-04-01T17:23:24;11.98;;;5.28;;
53903;SDS011;39812;52.430;16.936;2023-04-01T17:42:21;8.82;;;5.47;;
53903;SDS011;39812;52.430;16.936;2023-04-01T17:45:01;9.77;;;5.95;;
53903;SDS011;39812;52.430;16.936;2023-04-01T17:47:38;11.07;;;6.25;;
53903;SDS011;39812;52.430;16.936;2023-04-01T17:55:50;8.52;;;5.25;;
53903;SDS011;39812;52.430;16.936;2023-04-01T17:58:40;11.73;;;6.03;;
53903;SDS011;39812;52.430;16.936;2023-04-01T18:03:52;8.65;;;5.35;;
53903;SDS011;39812;52.430;16.936;2023-04-01T18:15:19;7.50;;;5.10;;
53903;SDS011;39812;52.430;16.936;2023-04-01T18:18:45;8.63;;;5.38;;
53903;SDS011;39812;52.430;16.936;2023-04-01T18:23:39;9.18;;;5.35;;
53903;SDS011;39812;52.430;16.936;2023-04-01T18:37:22;6.22;;;4.38;;
53903;SDS011;39812;52.430;16.936;2023-04-01T18:39:52;6.72;;;4.50;;
53903;SDS011;39812;52.430;16.936;2023-04-01T18:42:46;6.30;;;4.10;;
53903;SDS011;39812;52.430;16.936;2023-04-01T18:51:01;5.63;;;4.10;;
53903;SDS011;39812;52.430;16.936;2023-04-01T18:53:39;7.22;;;4.22;;
53903;SDS011;39812;52.430;16.936;2023-04-01T18:56:08;11.35;;;4.22;;
53903;SDS011;39812;52.430;16.936;2023-04-01T19:01:37;6.63;;;4.30;;
53903;SDS011;39812;52.430;16.936;2023-04-01T19:06:51;7.95;;;4.75;;
53903;SDS011;39812;52.430;16.936;2023-04-01T19:09:26;8.43;;;4.57;;
53903;SDS011;39812;52.430;16.936;2023-04-01T19:17:54;5.40;;;4.22;;
53903;SDS011;39812;52.430;16.936;2023-04-01T19:20:45;6.35;;;4.55;;
53903;SDS011;39812;52.430;16.936;2023-04-01T19:32:03;9.02;;;4.80;;
53903;SDS011;39812;52.430;16.936;2023-04-01T19:37:39;6.47;;;3.78;;
53903;SDS011;39812;52.430;16.936;2023-04-01T19:45:38;7.22;;;4.10;;
53903;SDS011;39812;52.430;16.936;2023-04-01T19:48:16;5.18;;;4.28;;
53903;SDS011;39812;52.430;16.936;2023-04-01T19:50:55;7.28;;;4.40;;
53903;SDS011;39812;52.430;16.936;2023-04-01T19:56:20;6.68;;;4.35;;
53903;SDS011;39812;52.430;16.936;2023-04-01T20:01:24;10.80;;;4.18;;
53903;SDS011;39812;52.430;16.936;2023-04-01T20:04:36;5.90;;;3.90;;
53903;SDS011;39812;52.430;16.936;2023-04-01T20:09:51;6.43;;;4.40;;
53903;SDS011;39812;52.430;16.936;2023-04-01T20:17:57;6.70;;;4.20;;
53903;SDS011;39812;52.430;16.936;2023-04-01T20:20:28;5.22;;;3.63;;
53903;SDS011;39812;52.430;16.936;2023-04-01T20:25:54;6.25;;;4.00;;
53903;SDS011;39812;52.430;16.936;2023-04-01T20:28:32;7.68;;;5.20;;
53903;SDS011;39812;52.430;16.936;2023-04-01T20:31:27;7.03;;;4.63;;
53903;SDS011;39812;52.430;16.936;2023-04-01T20:42:29;6.55;;;4.20;;
53903;SDS011;39812;52.430;16.936;2023-04-01T20:53:35;6.43;;;4.18;;
53903;SDS011;39812;52.430;16.936;2023-04-01T20:56:36;5.57;;;3.67;;
53903;SDS011;39812;52.430;16.936;2023-04-01T20:59:27;6.78;;;4.03;;
53903;SDS011;39812;52.430;16.936;2023-04-01T21:10:24;5.13;;;3.90;;
53903;SDS011;39812;52.430;16.936;2023-04-01T21:15:44;10.00;;;4.55;;
53903;SDS011;39812;52.430;16.936;2023-04-01T21:26:10;8.65;;;4.90;;
53903;SDS011;39812;52.430;16.936;2023-04-01T21:29:06;9.10;;;5.05;;
53903;SDS011;39812;52.430;16.936;2023-04-01T21:53:28;8.95;;;5.38;;
53903;SDS011;39812;52.430;16.936;2023-04-01T22:09:49;8.90;;;5.32;;
53903;SDS011;39812;52.430;16.936;2023-04-01T22:12:38;9.68;;;5.00;;
53903;SDS011;39812;52.430;16.936;2023-04-01T22:15:14;7.30;;;4.78;;
53903;SDS011;39812;52.430;16.936;2023-04-01T22:17:48;7.75;;;4.63;;
53903;SDS011;39812;52.430;16.936;2023-04-01T22:20:23;7.95;;;5.72;;
53903;SDS011;39812;52.430;16.936;2023-04-01T22:28:35;10.75;;;5.55;;
53903;SDS011;39812;52.430;16.936;2023-04-01T22:31:12;12.95;;;5.30;;
53903;SDS011;39812;52.430;16.936;2023-04-01T22:36:40;11.30;;;5.65;;
53903;SDS011;39812;52.430;16.936;2023-04-01T22:45:02;8.55;;;4.55;;
53903;SDS011;39812;52.430;16.936;2023-04-01T22:55:44;7.82;;;4.18;;
53903;SDS011;39812;52.430;16.936;2023-04-01T22:58:56;7.72;;;4.85;;
53903;SDS011;39812;52.430;16.936;2023-04-01T23:01:10;8.80;;;4.43;;
53903;SDS011;39812;52.430;16.936;2023-04-01T23:03:41;7.03;;;4.93;;
53903;SDS011;39812;52.430;16.936;2023-04-01T23:06:13;6.85;;;4.15;;
53903;SDS011;39812;52.430;16.936;2023-04-01T23:08:51;7.20;;;4.03;;
53903;SDS011;39812;52.430;16.936;2023-04-01T23:11:31;8.30;;;4.85;;
53903;SDS011;39812;52.430;16.936;2023-04-01T23:24:56;6.32;;;3.95;;
53903;SDS011;39812;52.430;16.936;2023-04-01T23:28:15;6.05;;;3.63;;
53903;SDS011;39812;52.430;16.936;2023-04-01T23:38:13;6.53;;;4.40;;
53903;SDS011;39812;52.430;16.936;2023-04-01T23:40:39;8.25;;;4.93;;
53903;SDS011;39812;52.430;16.936;2023-04-01T23:43:19;7.15;;;4.40;;
53903;SDS011;39812;52.430;16.936;2023-04-01T23:45:52;9.45;;;4.18;;
53903;SDS011;39812;52.430;16.936;2023-04-01T23:48:27;7.60;;;4.47;;
53903;SDS011;39812;52.430;16.936;2023-04-01T23:50:56;7.72;;;4.22;;
53903;SDS011;39812;52.430;16.936;2023-04-01T23:53:24;7.20;;;4.28;;
53903;SDS011;39812;52.430;16.936;2023-04-01T23:55:53;9.60;;;5.05;;
